Time;durP1;ratioP1;P1;durP2;ratioP2;P2;SDS_P1;SDS_P2;PMS_P1;PMS_P2;Temp;Humidity;BMP_temperature;BMP_pressure;BME280_temperature;BME280_humidity;BME280_pressure;Samples;Min_cycle;Max_cycle;Signal;HPM_P1;HPM_P2
2022/04/29 00:00:08;;;;;;;15.67;12.43;;;11.30;99.90;;;;;;5067813;28;20463;-34
2022/04/29 00:02:35;;;;;;;14.07;11.10;;;11.00;99.90;;;;;;5061016;28;20440;-34
2022/04/29 00:05:00;;;;;;;14.80;12.23;;;11.00;99.90;;;;;;5065877;28;20419;-34
2022/04/29 00:07:26;;;;;;;14.27;11.57;;;11.10;99.90;;;;;;5068455;28;20419;-34
2022/04/29 00:09:52;;;;;;;13.57;12.13;;;11.00;99.90;;;;;;5070864;28;20354;-34
2022/04/29 00:12:19;;;;;;;15.90;11.37;;;11.00;99.90;;;;;;5072286;28;20524;-34
2022/04/29 00:14:45;;;;;;;17.17;12.60;;;10.90;99.90;;;;;;5079616;28;20188;-34
2022/04/29 00:17:11;;;;;;;14.47;12.67;;;11.10;99.90;;;;;;5090764;28;20437;-34
2022/04/29 00:19:38;;;;;;;14.50;11.60;;;10.90;99.90;;;;;;5064970;28;20992;-34
2022/04/29 00:22:04;;;;;;;15.73;12.77;;;10.90;99.90;;;;;;5072107;28;20427;-34
2022/04/29 00:24:30;;;;;;;16.70;12.43;;;10.90;99.90;;;;;;5072176;28;20518;-34
2022/04/29 00:26:56;;;;;;;17.43;13.53;;;10.80;99.90;;;;;;5072081;28;20737;-34
2022/04/29 00:29:22;;;;;;;13.00;11.70;;;10.80;99.90;;;;;;5071893;28;20434;-34
2022/04/29 00:31:48;;;;;;;17.70;11.63;;;10.80;99.90;;;;;;5071505;28;20431;-34
2022/04/29 00:34:13;;;;;;;17.90;13.27;;;11.00;99.90;;;;;;5062970;28;20185;-34
2022/04/29 00:36:39;;;;;;;15.83;12.60;;;11.00;99.90;;;;;;5071764;28;20189;-34
2022/04/29 00:39:05;;;;;;;14.40;12.47;;;10.90;99.90;;;;;;5071757;28;20185;-34
2022/04/29 00:41:31;;;;;;;14.40;13.00;;;10.80;99.90;;;;;;5071176;28;20671;-34
2022/04/29 00:44:09;;;;;;;15.10;12.57;;;10.70;99.90;;;;;;5071620;28;20434;-34
2022/04/29 00:46:40;;;;;;;17.80;12.40;;;10.90;99.90;;;;;;5071898;28;20193;-34
2022/04/29 00:49:07;;;;;;;14.40;12.10;;;10.70;99.90;;;;;;5058229;28;20455;-34
2022/04/29 00:51:33;;;;;;;14.17;12.73;;;10.80;99.90;;;;;;5068351;28;20427;-34
2022/04/29 00:54:02;;;;;;;20.47;13.10;;;10.70;99.90;;;;;;5070135;28;20412;-34
2022/04/29 00:56:29;;;;;;;16.07;12.30;;;10.60;99.90;;;;;;5071515;28;20447;-34
2022/04/29 00:59:15;;;;;;;16.03;12.53;;;10.60;99.90;;;;;;5071597;28;20427;-34
2022/04/29 01:01:43;;;;;;;16.17;12.33;;;10.70;99.90;;;;;;5071108;28;20845;-34
2022/04/29 01:04:14;;;;;;;17.67;13.03;;;10.70;99.90;;;;;;5059322;28;20436;-34
2022/04/29 01:06:40;;;;;;;17.87;12.07;;;10.60;99.90;;;;;;5071122;28;20842;-34
2022/04/29 01:09:05;;;;;;;15.50;12.90;;;10.70;99.90;;;;;;5069998;28;20411;-34
2022/04/29 01:11:32;;;;;;;17.63;12.67;;;10.60;99.90;;;;;;5070943;28;20242;-34
2022/04/29 01:13:57;;;;;;;23.07;13.80;;;10.80;99.90;;;;;;5072097;28;20707;-34
2022/04/29 01:16:23;;;;;;;15.97;13.53;;;10.60;99.90;;;;;;5091338;28;20502;-34
2022/04/29 01:18:51;;;;;;;14.43;12.87;;;10.60;99.90;;;;;;5072617;28;20290;-34
2022/04/29 01:21:18;;;;;;;15.30;12.23;;;10.40;99.90;;;;;;5069006;28;20272;-34
2022/04/29 01:23:43;;;;;;;16.40;13.30;;;10.50;99.90;;;;;;5071024;28;20416;-34
2022/04/29 01:26:14;;;;;;;16.90;13.27;;;10.50;99.90;;;;;;5071010;28;20465;-34
2022/04/29 01:28:45;;;;;;;15.47;12.77;;;10.50;99.90;;;;;;5071175;28;20192;-34
2022/04/29 01:31:15;;;;;;;14.27;12.77;;;10.50;99.90;;;;;;5070277;28;20431;-34
2022/04/29 01:33:47;;;;;;;16.73;12.87;;;10.50;99.90;;;;;;5064826;28;20480;-34
2022/04/29 01:36:13;;;;;;;20.23;13.50;;;10.60;99.90;;;;;;5067724;28;21145;-34
2022/04/29 01:38:39;;;;;;;16.13;13.03;;;10.50;99.90;;;;;;5070786;28;20427;-34
2022/04/29 01:41:05;;;;;;;18.10;12.63;;;10.40;99.90;;;;;;5069961;28;20249;-34
2022/04/29 01:43:35;;;;;;;16.83;13.00;;;10.40;99.90;;;;;;5070872;28;20415;-34
2022/04/29 01:46:02;;;;;;;15.63;12.40;;;10.30;99.90;;;;;;5070700;28;20415;-34
2022/04/29 01:48:28;;;;;;;15.73;12.73;;;10.20;99.90;;;;;;5064646;28;20431;-34
2022/04/29 01:50:55;;;;;;;15.77;12.40;;;10.30;99.90;;;;;;5064502;28;20419;-34
2022/04/29 01:53:21;;;;;;;14.63;12.23;;;10.10;99.90;;;;;;5070246;28;20439;-34
2022/04/29 01:55:46;;;;;;;14.90;12.43;;;10.30;99.90;;;;;;5070509;28;20462;-34
2022/04/29 01:58:12;;;;;;;14.80;12.90;;;10.10;99.90;;;;;;5070074;28;20251;-34
2022/04/29 02:00:38;;;;;;;17.07;11.97;;;10.00;99.90;;;;;;5069750;28;20458;-34
2022/04/29 02:03:04;;;;;;;19.20;13.03;;;10.00;99.90;;;;;;5066562;28;20447;-34
2022/04/29 02:05:30;;;;;;;21.20;15.20;;;10.10;99.90;;;;;;5060744;28;20428;-34
2022/04/29 02:07:57;;;;;;;15.30;12.90;;;10.20;99.90;;;;;;5070191;28;20188;-34
2022/04/29 02:10:23;;;;;;;16.43;13.50;;;10.30;99.90;;;;;;5069682;28;20187;-34
2022/04/29 02:12:49;;;;;;;16.67;12.70;;;10.10;99.90;;;;;;5069962;28;20482;-34
2022/04/29 02:15:16;;;;;;;20.17;11.87;;;9.90;99.90;;;;;;5081591;28;20462;-34
2022/04/29 02:17:41;;;;;;;15.87;12.63;;;9.80;99.90;;;;;;5089995;28;20184;-34
2022/04/29 02:20:08;;;;;;;12.83;11.13;;;9.80;99.90;;;;;;5060340;28;20471;-34
2022/04/29 02:22:33;;;;;;;13.73;11.30;;;9.80;99.90;;;;;;5069865;28;20181;-34
2022/04/29 02:24:59;;;;;;;12.80;11.00;;;9.70;99.90;;;;;;5069893;28;20445;-34
2022/04/29 02:27:25;;;;;;;18.50;10.97;;;9.80;99.90;;;;;;5069839;28;20185;-34
2022/04/29 02:29:51;;;;;;;12.43;10.60;;;9.70;99.90;;;;;;5068950;28;20184;-34
2022/04/29 02:32:18;;;;;;;13.73;10.97;;;9.90;99.90;;;;;;5069664;28;20184;-34
2022/04/29 02:34:43;;;;;;;13.43;10.33;;;9.60;99.90;;;;;;5061055;28;20193;-34
2022/04/29 02:37:09;;;;;;;13.77;10.77;;;9.50;99.90;;;;;;5069656;28;20477;-34
2022/04/29 02:39:35;;;;;;;14.03;11.30;;;9.50;99.90;;;;;;5068876;28;20463;-34
2022/04/29 02:42:02;;;;;;;13.43;10.60;;;9.50;99.90;;;;;;5069271;28;20430;-34
2022/04/29 02:44:28;;;;;;;13.50;10.60;;;9.60;99.90;;;;;;5069154;28;20173;-34
2022/04/29 02:47:09;;;;;;;14.67;11.40;;;9.50;99.90;;;;;;5069318;28;20427;-34
2022/04/29 02:49:35;;;;;;;14.33;10.57;;;9.60;99.90;;;;;;5059129;28;20185;-34
2022/04/29 02:52:01;;;;;;;16.40;10.87;;;9.70;99.90;;;;;;5067935;28;20489;-34
2022/04/29 02:54:27;;;;;;;15.07;9.90;;;9.50;99.90;;;;;;5083192;28;21258;-34
2022/04/29 02:56:53;;;;;;;13.60;11.50;;;9.50;99.90;;;;;;5086807;28;20905;-34
2022/04/29 02:59:19;;;;;;;14.07;9.33;;;9.40;99.90;;;;;;5082805;28;20208;-34
2022/04/29 03:01:46;;;;;;;17.40;11.50;;;9.40;99.90;;;;;;5089119;28;20303;-34
2022/04/29 03:04:12;;;;;;;14.13;9.53;;;9.30;99.90;;;;;;5069039;28;20447;-34
2022/04/29 03:06:38;;;;;;;16.70;10.10;;;9.50;99.90;;;;;;5061432;28;20465;-34
2022/04/29 03:09:04;;;;;;;13.80;9.73;;;9.30;99.90;;;;;;5069089;28;20447;-34
2022/04/29 03:11:30;;;;;;;11.70;8.93;;;9.50;99.90;;;;;;5068312;28;20200;-34
2022/04/29 03:13:55;;;;;;;18.20;10.20;;;9.30;99.90;;;;;;5069660;28;20280;-34
2022/04/29 03:16:21;;;;;;;13.70;9.20;;;9.40;99.90;;;;;;5087802;28;20582;-34
2022/04/29 03:18:47;;;;;;;12.37;9.63;;;9.30;99.90;;;;;;5078406;28;20204;-34
2022/04/29 03:21:13;;;;;;;13.73;10.00;;;9.20;99.90;;;;;;5057972;28;20250;-34
2022/04/29 03:23:39;;;;;;;10.60;9.40;;;9.20;99.90;;;;;;5069012;28;20973;-34
2022/04/29 03:26:05;;;;;;;13.40;9.57;;;9.10;99.90;;;;;;5068902;28;20199;-34
2022/04/29 03:28:31;;;;;;;13.23;10.10;;;9.20;99.90;;;;;;5068887;28;20268;-34
2022/04/29 03:30:58;;;;;;;14.03;10.00;;;9.10;99.90;;;;;;5068182;28;20439;-34
2022/04/29 03:33:24;;;;;;;12.20;9.20;;;9.00;99.90;;;;;;5068081;28;20435;-34
2022/04/29 03:35:53;;;;;;;12.17;8.93;;;9.00;99.90;;;;;;5057869;28;20839;-34
2022/04/29 03:38:19;;;;;;;12.43;9.90;;;8.90;99.90;;;;;;5068772;28;20462;-34
2022/04/29 03:40:45;;;;;;;15.30;10.83;;;8.80;99.90;;;;;;5068069;28;20870;-34
2022/04/29 03:43:14;;;;;;;12.87;9.70;;;8.70;99.90;;;;;;5068914;28;20439;-34
2022/04/29 03:45:40;;;;;;;12.47;9.90;;;9.00;99.90;;;;;;5073209;28;20212;-34
2022/04/29 03:48:06;;;;;;;13.63;9.17;;;8.70;99.90;;;;;;5072822;28;20438;-34
2022/04/29 03:50:32;;;;;;;14.73;10.43;;;8.70;99.90;;;;;;5069071;28;20442;-34
2022/04/29 03:53:01;;;;;;;15.37;9.13;;;8.80;99.90;;;;;;5072629;28;20449;-34
2022/04/29 03:55:29;;;;;;;12.43;9.77;;;8.70;99.90;;;;;;5072679;28;20473;-34
2022/04/29 03:57:55;;;;;;;12.77;9.30;;;8.70;99.90;;;;;;5071072;28;20453;-34
2022/04/29 04:00:26;;;;;;;14.97;9.73;;;8.50;99.90;;;;;;5071985;28;20524;-34
2022/04/29 04:02:52;;;;;;;12.87;9.37;;;8.70;99.90;;;;;;5072561;28;20415;-34
2022/04/29 04:05:18;;;;;;;15.77;9.33;;;8.50;99.90;;;;;;5061312;28;21027;-34
2022/04/29 04:07:45;;;;;;;15.80;10.13;;;8.50;99.90;;;;;;5072036;28;20424;-34
2022/04/29 04:10:11;;;;;;;12.73;9.57;;;8.50;99.90;;;;;;5071672;28;20762;-34
2022/04/29 04:12:48;;;;;;;12.73;8.60;;;8.50;99.90;;;;;;5072347;28;20423;-34
2022/04/29 04:15:16;;;;;;;13.03;9.40;;;8.40;99.90;;;;;;5084500;28;20449;-34
2022/04/29 04:17:42;;;;;;;14.13;9.43;;;8.40;99.90;;;;;;5091340;28;20430;-34
2022/04/29 04:20:10;;;;;;;12.97;9.00;;;8.50;99.90;;;;;;5066758;28;20475;-34
2022/04/29 04:22:36;;;;;;;14.20;9.87;;;8.80;99.90;;;;;;5070985;28;20770;-34
2022/04/29 04:25:19;;;;;;;12.30;8.73;;;8.70;99.90;;;;;;5072013;28;20427;-34
2022/04/29 04:27:45;;;;;;;12.07;8.60;;;8.60;99.90;;;;;;5072280;28;20419;-34
2022/04/29 04:30:11;;;;;;;17.30;8.90;;;8.70;99.90;;;;;;5071314;28;20427;-34
2022/04/29 04:32:38;;;;;;;13.80;8.97;;;8.90;99.90;;;;;;5072194;28;20660;-34
2022/04/29 04:35:05;;;;;;;14.43;8.70;;;8.90;99.90;;;;;;5061783;28;20446;-34
2022/04/29 04:37:32;;;;;;;9.87;8.20;;;8.70;99.90;;;;;;5072015;28;20498;-34
2022/04/29 04:40:00;;;;;;;13.53;8.80;;;8.80;99.90;;;;;;5071048;28;20459;-34
2022/04/29 04:42:26;;;;;;;12.40;8.47;;;8.70;99.90;;;;;;5067023;28;20458;-34
2022/04/29 04:44:53;;;;;;;12.93;8.50;;;8.90;99.90;;;;;;5066005;28;21194;-34
2022/04/29 04:47:19;;;;;;;13.70;8.50;;;8.70;99.90;;;;;;5071469;28;20415;-34
2022/04/29 04:49:45;;;;;;;14.20;8.87;;;8.70;99.90;;;;;;5066075;28;20898;-34
2022/04/29 04:52:10;;;;;;;13.80;8.50;;;8.60;99.90;;;;;;5069468;28;20523;-34
2022/04/29 04:54:37;;;;;;;12.07;8.63;;;8.40;99.90;;;;;;5071119;28;20743;-34
2022/04/29 04:57:04;;;;;;;12.37;8.57;;;8.60;99.90;;;;;;5069799;28;20209;-34
2022/04/29 04:59:30;;;;;;;15.20;9.20;;;8.30;99.90;;;;;;5071164;28;20423;-34
2022/04/29 05:01:55;;;;;;;16.10;8.80;;;8.50;99.90;;;;;;5070711;28;20429;-34
2022/04/29 05:04:22;;;;;;;12.27;8.60;;;8.60;99.90;;;;;;5067058;28;20866;-34
2022/04/29 05:06:47;;;;;;;16.40;9.40;;;8.60;99.90;;;;;;5064787;28;20183;-34
2022/04/29 05:09:13;;;;;;;12.37;9.00;;;8.70;99.90;;;;;;5071506;28;20458;-34
2022/04/29 05:11:39;;;;;;;11.77;8.50;;;8.60;99.90;;;;;;5070618;28;20192;-34
2022/04/29 05:14:05;;;;;;;13.80;9.00;;;8.90;99.90;;;;;;5073145;28;20187;-34
2022/04/29 05:16:31;;;;;;;14.10;9.10;;;8.90;99.90;;;;;;5088065;28;20231;-34
2022/04/29 05:18:56;;;;;;;13.80;8.57;;;8.90;99.90;;;;;;5081050;28;20957;-35
2022/04/29 05:21:22;;;;;;;15.93;9.10;;;8.90;99.90;;;;;;5067821;28;20342;-34
2022/04/29 05:23:48;;;;;;;15.70;9.00;;;9.00;99.90;;;;;;5071118;28;20272;-34
2022/04/29 05:26:13;;;;;;;13.83;9.00;;;8.90;99.90;;;;;;5070929;28;20718;-34
2022/04/29 05:28:39;;;;;;;12.90;9.27;;;8.90;99.90;;;;;;5071061;28;20292;-34
2022/04/29 05:31:05;;;;;;;13.50;9.00;;;9.00;99.90;;;;;;5070164;28;20193;-34
2022/04/29 05:33:32;;;;;;;15.20;8.77;;;9.10;99.90;;;;;;5073894;28;20242;-34
2022/04/29 05:36:01;;;;;;;14.43;8.40;;;8.90;99.90;;;;;;5057967;28;20451;-34
2022/04/29 05:42:14;;;;;;;11.97;8.57;;;9.20;99.90;;;;;;5069543;28;20902;-34
2022/04/29 05:43:58;;;;;;;14.37;9.97;;;8.90;99.90;;;;;;5079350;28;20466;-34
2022/04/29 05:46:23;;;;;;;16.30;9.10;;;8.80;99.90;;;;;;5080479;28;20425;-34
2022/04/29 05:48:49;;;;;;;13.30;8.97;;;8.80;99.90;;;;;;5070850;28;20427;-34
2022/04/29 05:51:15;;;;;;;13.37;9.03;;;8.80;99.90;;;;;;5054624;28;20319;-34
2022/04/29 05:53:40;;;;;;;13.53;9.77;;;8.80;99.90;;;;;;5068245;28;20193;-34
2022/04/29 05:56:06;;;;;;;12.43;9.80;;;8.70;99.90;;;;;;5070113;28;20322;-34
2022/04/29 05:58:32;;;;;;;17.37;9.90;;;8.80;99.90;;;;;;5070155;28;20711;-34
2022/04/29 06:00:58;;;;;;;17.80;10.37;;;9.00;99.90;;;;;;5071130;28;20691;-34
2022/04/29 06:03:25;;;;;;;14.20;10.83;;;9.00;99.90;;;;;;5090593;28;20228;-34
2022/04/29 06:05:50;;;;;;;15.90;10.40;;;9.10;99.90;;;;;;5068450;28;20980;-34
2022/04/29 06:08:16;;;;;;;19.03;10.13;;;9.20;99.90;;;;;;5065223;28;20493;-34
2022/04/29 06:10:42;;;;;;;14.30;9.77;;;9.20;99.90;;;;;;5067217;28;20189;-34
2022/04/29 06:13:08;;;;;;;14.43;11.03;;;9.10;99.90;;;;;;5069127;28;20189;-34
2022/04/29 06:15:35;;;;;;;21.10;10.60;;;9.10;99.90;;;;;;5085141;28;20243;-34
2022/04/29 06:18:02;;;;;;;15.53;10.10;;;9.20;99.90;;;;;;5085745;28;20789;-34
2022/04/29 06:20:29;;;;;;;18.97;10.00;;;9.40;99.90;;;;;;5071203;28;20492;-34
2022/04/29 06:22:55;;;;;;;19.60;10.50;;;9.70;99.90;;;;;;5081128;28;20421;-34
2022/04/29 06:25:22;;;;;;;14.33;10.00;;;9.60;99.90;;;;;;5078990;28;20415;-34
2022/04/29 06:27:48;;;;;;;18.30;11.23;;;10.20;99.90;;;;;;5082688;28;21434;-34
2022/04/29 06:30:14;;;;;;;14.47;9.00;;;10.00;99.90;;;;;;5085751;28;20421;-34
2022/04/29 06:32:39;;;;;;;16.40;9.77;;;10.30;99.90;;;;;;5090086;28;20984;-34
2022/04/29 06:35:06;;;;;;;17.57;10.10;;;10.40;99.90;;;;;;5083033;28;20190;-34
2022/04/29 06:37:33;;;;;;;17.30;10.20;;;10.50;99.90;;;;;;5060036;28;20230;-34
2022/04/29 06:39:58;;;;;;;17.07;10.13;;;10.70;99.90;;;;;;5068543;28;20906;-34
2022/04/29 06:42:24;;;;;;;16.23;10.97;;;10.70;99.90;;;;;;5078110;28;20493;-34
2022/04/29 06:44:50;;;;;;;17.23;10.50;;;10.70;99.90;;;;;;5074825;28;20189;-34
2022/04/29 06:47:17;;;;;;;16.43;10.63;;;10.70;99.90;;;;;;5072679;28;20196;-34
2022/04/29 06:49:43;;;;;;;17.47;10.50;;;10.80;99.90;;;;;;5070012;28;20208;-34
2022/04/29 06:52:09;;;;;;;15.10;11.17;;;10.60;99.90;;;;;;5057999;28;20740;-34
2022/04/29 06:54:35;;;;;;;14.10;10.60;;;10.80;99.90;;;;;;5069020;28;20929;-34
2022/04/29 06:57:01;;;;;;;19.37;10.40;;;10.90;99.90;;;;;;5068226;28;20443;-34
2022/04/29 06:59:27;;;;;;;15.00;10.13;;;11.00;99.90;;;;;;5067846;28;20514;-34
2022/04/29 07:01:53;;;;;;;19.00;10.77;;;11.10;99.90;;;;;;5068821;28;20561;-34
2022/04/29 07:04:19;;;;;;;15.13;10.63;;;11.30;99.90;;;;;;5068116;28;20647;-34
2022/04/29 07:06:44;;;;;;;14.60;10.00;;;11.30;99.90;;;;;;5059102;28;20576;-34
2022/04/29 07:09:10;;;;;;;16.13;9.23;;;11.20;99.90;;;;;;5068910;28;20188;-34
2022/04/29 07:11:36;;;;;;;17.30;10.90;;;11.30;99.90;;;;;;5068591;28;20192;-34
2022/04/29 07:14:02;;;;;;;14.40;10.90;;;11.30;99.90;;;;;;5069811;28;20212;-34
2022/04/29 07:16:30;;;;;;;20.40;10.53;;;11.20;99.90;;;;;;5089280;28;20656;-34
2022/04/29 07:18:57;;;;;;;13.20;10.50;;;11.10;99.90;;;;;;5088730;28;20426;-34
2022/04/29 07:21:23;;;;;;;15.23;10.37;;;11.10;99.90;;;;;;5066499;28;20820;-34
2022/04/29 07:23:49;;;;;;;17.80;11.50;;;11.30;99.90;;;;;;5070559;28;20431;-34
2022/04/29 07:26:15;;;;;;;14.83;10.97;;;11.30;99.90;;;;;;5080052;28;20517;-34
2022/04/29 07:28:41;;;;;;;19.23;11.00;;;11.20;99.90;;;;;;5088933;28;20189;-34
2022/04/29 07:31:07;;;;;;;19.13;11.67;;;11.10;99.90;;;;;;5087388;28;20431;-34
2022/04/29 07:33:32;;;;;;;16.70;10.60;;;11.10;99.90;;;;;;5089231;28;20426;-34
2022/04/29 07:41:45;;;;;;;16.33;12.00;;;11.20;99.90;;;;;;5068049;28;21225;-34
2022/04/29 07:44:14;;;;;;;17.33;11.80;;;11.40;99.90;;;;;;5069017;28;20431;-34
2022/04/29 07:46:45;;;;;;;17.43;11.77;;;11.50;99.90;;;;;;5068413;28;20492;-34
2022/04/29 07:49:12;;;;;;;17.13;12.20;;;11.70;99.90;;;;;;5069054;28;20972;-34
2022/04/29 07:51:38;;;;;;;13.70;10.77;;;11.80;99.90;;;;;;5059289;28;20474;-34
2022/04/29 07:54:04;;;;;;;18.80;12.60;;;11.90;99.90;;;;;;5068784;28;20466;-34
2022/04/29 07:56:30;;;;;;;18.10;11.83;;;12.00;99.90;;;;;;5068585;28;20435;-34
2022/04/29 07:58:57;;;;;;;17.50;12.37;;;12.10;99.90;;;;;;5067487;28;20439;-34
2022/04/29 08:01:23;;;;;;;15.30;11.20;;;12.10;99.90;;;;;;5070624;28;20216;-34
2022/04/29 08:03:50;;;;;;;14.70;10.80;;;12.20;99.90;;;;;;5079503;28;20418;-34
2022/04/29 08:06:16;;;;;;;20.63;11.83;;;12.40;99.90;;;;;;5075827;28;20917;-34
2022/04/29 08:08:42;;;;;;;19.10;11.90;;;12.50;99.90;;;;;;5082695;28;20434;-34
2022/04/29 08:11:07;;;;;;;13.23;11.80;;;12.60;99.90;;;;;;5072918;28;20887;-34
2022/04/29 08:13:33;;;;;;;15.47;11.73;;;12.70;99.90;;;;;;5074085;28;20193;-34
2022/04/29 08:15:59;;;;;;;14.13;11.40;;;12.60;99.90;;;;;;5079616;28;21101;-34
2022/04/29 08:18:26;;;;;;;14.77;11.10;;;12.60;99.90;;;;;;5069462;28;20220;-34
2022/04/29 08:20:52;;;;;;;16.23;11.33;;;12.70;99.90;;;;;;5060798;28;20312;-34
2022/04/29 08:23:18;;;;;;;15.10;11.90;;;12.80;99.90;;;;;;5059073;28;20427;-34
2022/04/29 08:25:44;;;;;;;16.27;10.40;;;12.80;99.90;;;;;;5068292;28;20528;-34
2022/04/29 08:28:10;;;;;;;15.23;11.60;;;12.80;99.90;;;;;;5068378;28;20458;-34
2022/04/29 08:30:36;;;;;;;17.87;12.60;;;12.80;99.90;;;;;;5068498;28;20196;-34
2022/04/29 08:33:01;;;;;;;18.40;11.47;;;12.70;99.90;;;;;;5072368;28;20193;-34
2022/04/29 08:35:28;;;;;;;14.70;10.53;;;12.70;99.90;;;;;;5069715;28;20330;-34
2022/04/29 08:37:55;;;;;;;15.20;11.47;;;12.70;99.90;;;;;;5064203;28;20197;-34
2022/04/29 08:40:21;;;;;;;15.47;11.53;;;12.70;99.90;;;;;;5070910;28;20454;-34
2022/04/29 08:42:46;;;;;;;14.07;10.70;;;12.80;99.90;;;;;;5071896;28;20423;-34
2022/04/29 08:45:17;;;;;;;14.83;10.80;;;12.80;99.90;;;;;;5071613;28;20194;-34
2022/04/29 08:47:44;;;;;;;14.20;10.43;;;12.80;99.90;;;;;;5074064;28;20601;-34
2022/04/29 08:50:16;;;;;;;17.00;11.07;;;12.80;99.90;;;;;;5085419;28;20449;-34
2022/04/29 08:52:44;;;;;;;14.90;10.40;;;12.80;99.90;;;;;;5066629;28;20981;-34
2022/04/29 09:00:41;;;;;;;14.57;10.90;;;12.90;99.90;;;;;;5070870;28;20463;-34
2022/04/29 09:03:15;;;;;;;18.33;10.97;;;12.90;99.90;;;;;;5071548;28;20455;-34
2022/04/29 09:05:42;;;;;;;15.60;11.13;;;12.90;99.90;;;;;;5067493;28;20484;-34
2022/04/29 09:08:12;;;;;;;12.63;10.33;;;12.90;99.90;;;;;;5062592;28;20427;-34
2022/04/29 09:10:46;;;;;;;19.90;10.90;;;13.00;99.90;;;;;;5064035;28;20450;-34
2022/04/29 09:13:14;;;;;;;18.03;10.37;;;13.00;99.90;;;;;;5071485;28;20430;-34
2022/04/29 09:16:11;;;;;;;16.30;11.10;;;13.10;99.90;;;;;;5074381;28;20468;-34
2022/04/29 09:18:48;;;;;;;15.33;10.53;;;13.00;99.90;;;;;;5074876;28;20434;-34
2022/04/29 09:21:25;;;;;;;17.20;10.87;;;13.10;99.90;;;;;;5077545;28;20985;-34
2022/04/29 09:23:56;;;;;;;16.67;10.13;;;13.20;99.90;;;;;;5078022;28;20433;-34
2022/04/29 09:26:38;;;;;;;13.00;9.70;;;13.20;99.90;;;;;;5079865;28;20473;-34
2022/04/29 09:29:15;;;;;;;18.07;10.33;;;13.30;99.90;;;;;;5090739;28;20429;-34
2022/04/29 09:32:00;;;;;;;13.30;10.00;;;13.30;99.90;;;;;;5071243;28;21082;-34
2022/04/29 09:34:53;;;;;;;13.90;10.50;;;13.50;99.90;;;;;;5061301;28;20419;-34
2022/04/29 09:37:24;;;;;;;16.37;11.30;;;13.60;99.90;;;;;;5060811;28;20849;-34
2022/04/29 09:39:53;;;;;;;13.40;9.77;;;13.70;99.90;;;;;;5070057;28;20455;-34
2022/04/29 09:42:19;;;;;;;17.37;9.77;;;13.70;99.90;;;;;;5069999;28;20450;-34
2022/04/29 09:44:45;;;;;;;16.67;9.63;;;13.80;99.90;;;;;;5070820;28;20451;-34
2022/04/29 09:47:22;;;;;;;29.37;10.83;;;13.80;99.90;;;;;;5069479;28;20185;-34
2022/04/29 09:49:55;;;;;;;14.50;9.43;;;13.80;99.90;;;;;;5070048;28;20521;-34
2022/04/29 09:52:22;;;;;;;16.90;10.60;;;13.80;99.90;;;;;;5060279;28;21004;-34
2022/04/29 09:54:50;;;;;;;17.90;10.77;;;13.80;99.90;;;;;;5070543;28;20431;-34
2022/04/29 09:57:18;;;;;;;12.73;9.23;;;13.90;99.90;;;;;;5070287;28;20451;-34
2022/04/29 09:59:49;;;;;;;12.47;9.73;;;13.90;99.90;;;;;;5069684;28;20830;-34
2022/04/29 10:02:32;;;;;;;18.20;10.67;;;14.00;99.90;;;;;;5069968;28;20482;-34
2022/04/29 10:04:58;;;;;;;14.10;10.03;;;14.00;99.90;;;;;;5069535;28;20426;-34
2022/04/29 10:07:25;;;;;;;18.73;11.03;;;13.90;99.90;;;;;;5062579;28;20431;-34
2022/04/29 10:09:53;;;;;;;16.20;10.20;;;13.80;99.90;;;;;;5069672;28;20193;-34
2022/04/29 10:12:22;;;;;;;16.30;10.30;;;13.90;99.90;;;;;;5070096;28;20441;-34
2022/04/29 10:14:57;;;;;;;15.90;10.70;;;13.90;99.90;;;;;;5074472;28;20860;-34
2022/04/29 10:23:10;;;;;;;15.90;11.93;;;14.00;99.90;;;;;;5058343;28;20446;-34
2022/04/29 10:25:40;;;;;;;16.33;12.57;;;14.20;99.90;;;;;;5052315;28;20427;-34
2022/04/29 10:28:07;;;;;;;22.23;13.80;;;14.20;99.90;;;;;;5069995;28;21118;-34
2022/04/29 10:30:35;;;;;;;20.00;12.77;;;14.20;99.90;;;;;;5069337;28;20431;-34
2022/04/29 10:33:22;;;;;;;17.00;12.77;;;14.20;99.90;;;;;;5069896;28;20438;-34
2022/04/29 10:35:50;;;;;;;15.23;12.37;;;14.50;99.90;;;;;;5069783;28;20825;-34
2022/04/29 10:38:21;;;;;;;17.33;12.67;;;14.60;99.90;;;;;;5052932;28;20447;-34
2022/04/29 10:41:07;;;;;;;20.17;11.90;;;14.70;99.90;;;;;;5068946;28;20532;-34
2022/04/29 10:43:43;;;;;;;17.90;11.37;;;14.70;99.90;;;;;;5070560;28;20423;-34
2022/04/29 10:46:09;;;;;;;15.50;11.30;;;14.60;99.90;;;;;;5082002;28;20422;-34
2022/04/29 10:48:39;;;;;;;14.10;10.87;;;14.60;99.90;;;;;;5090017;28;20422;-34
2022/04/29 10:51:15;;;;;;;13.30;10.83;;;14.60;99.90;;;;;;5089074;28;20184;-34
2022/04/29 10:53:43;;;;;;;15.90;10.83;;;14.60;99.90;;;;;;5056299;28;21071;-34
2022/04/29 10:56:36;;;;;;;15.67;11.10;;;14.50;99.90;;;;;;5068829;28;20427;-34
2022/04/29 10:59:05;;;;;;;13.87;9.93;;;14.50;99.90;;;;;;5069395;28;20431;-34
2022/04/29 11:01:34;;;;;;;14.70;10.10;;;14.70;99.90;;;;;;5068579;28;20462;-34
2022/04/29 11:04:15;;;;;;;17.37;10.30;;;14.80;99.90;;;;;;5069457;28;20428;-34
2022/04/29 11:06:46;;;;;;;10.87;9.00;;;14.90;99.90;;;;;;5064755;28;20423;-34
2022/04/29 11:09:48;;;;;;;12.80;9.50;;;15.10;99.90;;;;;;5064688;28;20442;-34
2022/04/29 11:12:37;;;;;;;14.60;9.33;;;15.10;99.90;;;;;;5064286;28;20442;-34
2022/04/29 11:15:42;;;;;;;14.70;8.67;;;15.00;99.90;;;;;;5073998;28;20474;-34
2022/04/29 11:18:26;;;;;;;14.57;9.33;;;15.00;99.90;;;;;;5089584;28;20433;-34
2022/04/29 11:20:59;;;;;;;12.03;7.93;;;15.00;99.90;;;;;;5083712;28;20458;-34
2022/04/29 11:26:18;;;;;;;16.87;8.73;;;15.00;99.90;;;;;;5066601;28;20438;-34
2022/04/29 11:28:50;;;;;;;12.07;8.20;;;15.00;99.90;;;;;;5068875;28;20427;-34
2022/04/29 11:31:16;;;;;;;11.23;7.87;;;15.10;99.90;;;;;;5068360;28;20443;-34
2022/04/29 11:33:41;;;;;;;11.10;8.00;;;15.10;99.90;;;;;;5067507;28;20427;-34
2022/04/29 11:36:12;;;;;;;10.00;8.00;;;15.20;99.90;;;;;;5068765;28;20743;-34
2022/04/29 11:38:44;;;;;;;8.73;7.53;;;15.30;99.90;;;;;;5055133;28;20192;-34
2022/04/29 11:41:21;;;;;;;10.87;8.30;;;15.30;99.90;;;;;;5068302;28;20500;-34
2022/04/29 11:43:48;;;;;;;10.20;7.77;;;15.40;99.90;;;;;;5068947;28;21325;-34
2022/04/29 11:46:15;;;;;;;10.47;8.20;;;15.50;99.90;;;;;;5068631;28;20841;-34
2022/04/29 11:48:59;;;;;;;13.40;8.43;;;15.50;99.90;;;;;;5068886;28;20482;-34
2022/04/29 11:51:30;;;;;;;11.00;9.67;;;15.60;99.90;;;;;;5068311;28;20541;-34
2022/04/29 11:54:04;;;;;;;10.50;8.20;;;15.60;99.90;;;;;;5060837;28;20439;-34
2022/04/29 11:56:42;;;;;;;10.40;8.27;;;15.70;99.90;;;;;;5067219;28;20801;-34
2022/04/29 11:59:09;;;;;;;13.30;8.40;;;15.70;99.90;;;;;;5084478;28;20435;-34
2022/04/29 12:01:36;;;;;;;10.20;7.47;;;15.60;99.90;;;;;;5068102;28;20524;-34
2022/04/29 12:04:02;;;;;;;11.27;7.90;;;15.60;99.90;;;;;;5068639;28;20427;-34
2022/04/29 12:06:28;;;;;;;11.73;7.87;;;15.70;99.90;;;;;;5071578;28;20457;-34
2022/04/29 12:08:55;;;;;;;15.23;9.10;;;15.70;99.90;;;;;;5063214;28;20447;-34
2022/04/29 12:11:29;;;;;;;12.93;8.53;;;15.70;99.50;;;;;;5071797;28;20185;-34
2022/04/29 12:13:55;;;;;;;12.70;8.10;;;15.60;99.90;;;;;;5072375;28;20937;-34
2022/04/29 12:16:21;;;;;;;9.63;8.17;;;15.50;99.90;;;;;;5088630;28;20456;-34
2022/04/29 12:18:49;;;;;;;12.30;8.60;;;15.50;99.90;;;;;;5092866;28;20861;-34
2022/04/29 12:21:25;;;;;;;10.53;8.43;;;15.60;99.90;;;;;;5083986;28;20953;-34
2022/04/29 12:23:52;;;;;;;13.70;8.03;;;15.70;99.90;;;;;;5061268;28;20438;-34
2022/04/29 12:26:18;;;;;;;10.37;7.87;;;15.70;99.90;;;;;;5072277;28;20433;-34
2022/04/29 12:28:53;;;;;;;10.07;8.50;;;15.70;99.90;;;;;;5072399;28;20813;-34
2022/04/29 12:36:54;;;;;;;12.70;8.13;;;15.80;99.90;;;;;;5071013;28;20952;-34
2022/04/29 12:39:24;;;;;;;11.33;8.23;;;15.90;99.90;;;;;;5063827;28;20490;-34
2022/04/29 12:42:09;;;;;;;12.87;8.50;;;16.00;99.90;;;;;;5071173;28;21004;-34
2022/04/29 12:45:04;;;;;;;13.43;8.50;;;16.10;99.90;;;;;;5071817;28;20758;-34
2022/04/29 12:47:39;;;;;;;20.53;9.93;;;16.10;99.90;;;;;;5071793;28;20423;-34
2022/04/29 12:50:21;;;;;;;15.17;8.57;;;16.10;99.80;;;;;;5071276;28;20781;-34
2022/04/29 12:53:07;;;;;;;16.10;9.30;;;16.00;99.90;;;;;;5061730;28;20527;-34
2022/04/29 12:55:42;;;;;;;13.83;9.37;;;16.00;99.90;;;;;;5071682;28;21066;-34
2022/04/29 12:58:18;;;;;;;9.90;8.90;;;15.80;99.90;;;;;;5071406;28;20430;-34
2022/04/29 13:01:06;;;;;;;11.77;7.90;;;15.70;99.90;;;;;;5070988;28;20462;-34
2022/04/29 13:03:34;;;;;;;14.80;9.40;;;15.60;99.90;;;;;;5059900;28;20431;-34
2022/04/29 13:06:01;;;;;;;10.60;9.23;;;15.60;99.80;;;;;;5069444;28;20530;-34
2022/04/29 13:08:27;;;;;;;10.77;9.67;;;15.60;99.90;;;;;;5064630;28;20435;-34